createdAt,value
2018-11-03T00:00:56.579Z,25.70
2018-11-03T00:03:25.633Z,24.10
2018-11-03T00:05:54.689Z,26.30
2018-11-03T00:08:23.749Z,23.70
2018-11-03T00:10:52.821Z,23.57
2018-11-03T00:13:21.900Z,24.93
2018-11-03T00:15:51.881Z,26.50
2018-11-03T00:18:20.936Z,24.17
2018-11-03T00:23:25.757Z,30.45
2018-11-03T00:25:54.856Z,26.40
2018-11-03T00:28:24.016Z,26.07
2018-11-03T00:30:53.135Z,24.60
2018-11-03T00:33:22.160Z,27.87
2018-11-03T00:35:51.237Z,25.27
2018-11-03T00:38:21.252Z,25.23
2018-11-03T00:40:50.301Z,23.87
2018-11-03T00:45:55.085Z,29.90
2018-11-03T00:48:24.139Z,29.80
2018-11-03T00:53:28.911Z,29.50
2018-11-03T00:58:33.659Z,26.87
2018-11-03T01:03:38.397Z,28.12
2018-11-03T01:08:43.154Z,30.42
2018-11-03T01:13:47.899Z,27.42
2018-11-03T01:18:55.171Z,29.37
2018-11-03T01:21:24.262Z,30.88
2018-11-03T01:23:53.394Z,27.07
2018-11-03T01:26:22.391Z,26.27
2018-11-03T01:28:51.459Z,24.83
2018-11-03T01:31:20.619Z,23.17
2018-11-03T01:33:50.676Z,21.90
2018-11-03T01:36:19.734Z,28.85
2018-11-03T01:38:48.781Z,27.10
2018-11-03T01:41:17.841Z,30.10
2018-11-03T01:43:46.910Z,25.93
2018-11-03T01:46:15.972Z,30.95
2018-11-03T01:48:45.118Z,26.57
2018-11-03T01:51:14.177Z,25.73
2018-11-03T01:53:43.241Z,31.50
2018-11-03T01:56:13.271Z,25.70
2018-11-03T01:58:42.305Z,24.50
2018-11-03T02:01:11.361Z,29.87
2018-11-03T02:03:40.436Z,25.27
2018-11-03T02:06:09.509Z,25.63
2018-11-03T02:08:38.675Z,23.50
2018-11-03T02:11:07.713Z,22.23
2018-11-03T02:13:36.760Z,30.88
2018-11-03T02:16:07.721Z,23.33
2018-11-03T02:23:48.275Z,29.55
2018-11-03T02:26:17.329Z,31.02
2018-11-03T02:28:46.469Z,22.77
2018-11-03T02:31:15.533Z,24.50
2018-11-03T02:33:44.618Z,22.83
2018-11-03T02:36:13.653Z,22.10
2018-11-03T02:38:42.705Z,23.13
2018-11-03T02:41:11.745Z,22.70
2018-11-03T02:43:40.824Z,21.43
2018-11-03T02:46:09.871Z,22.87
2018-11-03T02:53:50.366Z,28.33
2018-11-03T02:58:55.121Z,29.10
2018-11-03T03:03:59.861Z,26.35
2018-11-03T03:06:30.883Z,22.63
2018-11-03T03:08:59.960Z,24.37
2018-11-03T03:14:09.509Z,25.17
2018-11-03T03:16:38.580Z,24.00
2018-11-03T03:19:07.638Z,21.97
2018-11-03T03:21:36.711Z,26.52
2018-11-03T03:24:07.758Z,25.60
2018-11-03T03:26:36.814Z,24.10
2018-11-03T03:29:06.989Z,24.30
2018-11-03T03:31:35.825Z,24.37
2018-11-03T03:36:40.592Z,27.00
2018-11-03T03:39:09.700Z,26.17
2018-11-03T03:41:38.742Z,27.62
2018-11-03T03:44:07.840Z,31.20
2018-11-03T03:46:36.925Z,27.30
2018-11-03T03:49:06.024Z,24.10
2018-11-03T03:51:36.049Z,24.27
2018-11-03T03:54:05.096Z,24.97
2018-11-03T03:59:09.860Z,26.55
2018-11-03T04:01:38.893Z,24.47
2018-11-03T04:04:07.945Z,27.45
2018-11-03T04:09:12.698Z,26.70
2018-11-03T04:11:41.750Z,22.70
2018-11-03T04:14:10.789Z,23.40
2018-11-03T04:16:39.938Z,22.60
2018-11-03T04:21:44.746Z,26.45
2018-11-03T04:24:13.904Z,23.97
2018-11-03T04:26:42.994Z,23.43
2018-11-03T04:29:12.118Z,23.40
2018-11-03T04:31:41.179Z,21.60
2018-11-03T04:36:46.483Z,26.15
2018-11-03T04:39:15.524Z,22.53
2018-11-03T04:41:44.588Z,21.13
2018-11-03T04:46:49.451Z,25.40
2018-11-03T04:51:54.214Z,25.85
2018-11-03T04:54:23.270Z,23.10
2018-11-03T04:56:52.353Z,24.30
2018-11-03T04:59:22.392Z,22.13
2018-11-03T05:01:51.413Z,19.40
2018-11-03T05:09:33.401Z,25.90
2018-11-03T05:12:02.495Z,22.70
2018-11-03T05:17:07.302Z,24.67
2018-11-03T05:22:12.054Z,24.52
2018-11-03T05:24:42.151Z,23.60
2018-11-03T05:27:11.225Z,23.80
2018-11-03T05:29:40.265Z,20.50
2018-11-03T05:32:09.331Z,21.47
2018-11-03T05:34:38.443Z,19.30
2018-11-03T05:37:07.495Z,18.50
2018-11-03T05:39:36.546Z,19.73
2018-11-03T05:42:05.593Z,20.50
2018-11-03T05:44:34.637Z,18.07
2018-11-03T05:47:04.640Z,18.67
2018-11-03T05:49:33.688Z,19.63
2018-11-03T05:52:02.806Z,18.50
2018-11-03T05:54:31.945Z,22.75
2018-11-03T05:57:01.003Z,19.87
2018-11-03T05:59:30.135Z,19.93
2018-11-03T06:04:34.948Z,24.12
2018-11-03T06:07:04.021Z,21.97
2018-11-03T06:09:33.086Z,20.30
2018-11-03T06:12:02.147Z,19.90
2018-11-03T06:14:31.192Z,21.03
2018-11-03T06:17:00.296Z,19.97
2018-11-03T06:19:29.389Z,19.13
2018-11-03T06:24:34.187Z,23.80
2018-11-03T06:27:03.240Z,21.00
2018-11-03T06:29:32.297Z,23.42
2018-11-03T06:32:01.357Z,19.10
2018-11-03T06:34:31.025Z,20.97
2018-11-03T06:37:00.142Z,18.93
2018-11-03T06:39:29.197Z,22.80
2018-11-03T06:41:58.237Z,21.00
2018-11-03T06:47:03.066Z,24.12
2018-11-03T06:49:32.140Z,21.27
2018-11-03T06:52:03.211Z,23.85
2018-11-03T06:54:32.268Z,21.23
2018-11-03T06:57:03.320Z,19.63
2018-11-03T07:02:08.073Z,21.75
2018-11-03T07:07:15.051Z,24.17
2018-11-03T07:09:44.079Z,19.50
2018-11-03T07:12:13.274Z,19.03
2018-11-03T07:14:42.226Z,20.62
2018-11-03T07:19:47.267Z,21.70
2018-11-03T07:22:19.179Z,22.37
2018-11-03T07:24:49.300Z,21.43
2018-11-03T07:27:22.166Z,18.53
2018-11-03T07:29:54.810Z,16.60
2018-11-03T07:32:27.391Z,16.77
2018-11-03T07:34:56.638Z,18.00
2018-11-03T07:37:25.619Z,17.23
2018-11-03T07:39:54.662Z,17.40
2018-11-03T07:42:23.822Z,17.13
2018-11-03T07:47:29.625Z,19.17
2018-11-03T07:49:59.629Z,16.90
2018-11-03T07:52:28.712Z,19.62
2018-11-03T07:54:58.731Z,19.63
2018-11-03T07:57:27.781Z,15.80
2018-11-03T07:59:56.945Z,15.30
2018-11-03T08:02:27.990Z,26.93
2018-11-03T08:04:57.117Z,36.83
2018-11-03T08:10:02.543Z,29.15
2018-11-03T08:12:31.597Z,29.10
2018-11-03T08:15:00.665Z,20.43
2018-11-03T08:17:29.889Z,21.00
2018-11-03T08:19:58.957Z,15.33
2018-11-03T08:22:28.147Z,17.03
2018-11-03T08:24:57.227Z,16.27
2018-11-03T08:27:26.276Z,15.90
2018-11-03T08:32:31.522Z,19.23
2018-11-03T08:35:04.536Z,18.33
2018-11-03T08:37:33.596Z,17.57
2018-11-03T08:40:02.630Z,17.97
2018-11-03T08:42:31.687Z,16.40
2018-11-03T08:45:00.790Z,18.20
2018-11-03T08:47:29.848Z,15.60
2018-11-03T08:49:58.889Z,15.80
2018-11-03T08:52:27.953Z,18.17
2018-11-03T08:54:56.991Z,16.03
2018-11-03T08:57:26.109Z,16.90
2018-11-03T09:02:30.876Z,16.70
2018-11-03T09:04:59.941Z,16.03
2018-11-03T09:07:30.959Z,15.77
2018-11-03T09:10:00.022Z,16.57
2018-11-03T09:12:29.082Z,15.13
2018-11-03T09:15:01.382Z,16.05
2018-11-03T09:17:30.405Z,16.63
2018-11-03T09:19:59.559Z,15.83
2018-11-03T09:22:28.647Z,14.90
2018-11-03T09:24:57.774Z,15.77
2018-11-03T09:27:30.250Z,14.10
2018-11-03T09:32:35.025Z,18.23
2018-11-03T09:35:04.098Z,15.13
2018-11-03T09:37:33.353Z,16.20
2018-11-03T09:40:03.391Z,17.12
2018-11-03T09:42:40.603Z,16.87
2018-11-03T09:45:17.492Z,14.50
2018-11-03T09:47:47.011Z,16.00
2018-11-03T09:50:16.375Z,14.83
2018-11-03T09:52:47.413Z,16.93
2018-11-03T09:55:16.470Z,15.40
2018-11-03T10:00:21.322Z,17.17
2018-11-03T10:02:50.367Z,17.80
2018-11-03T10:05:19.431Z,18.20
2018-11-03T10:07:48.666Z,16.87
2018-11-03T10:10:17.715Z,16.00
2018-11-03T10:12:46.821Z,16.90
2018-11-03T10:15:15.928Z,16.87
2018-11-03T10:17:45.996Z,18.53
2018-11-03T10:20:15.045Z,18.60
2018-11-03T10:22:44.258Z,16.73
2018-11-03T10:25:13.233Z,17.10
2018-11-03T10:30:19.019Z,18.15
2018-11-03T10:32:49.280Z,17.80
2018-11-03T10:35:18.340Z,18.40
2018-11-03T10:37:48.779Z,18.23
2018-11-03T10:40:23.193Z,19.37
2018-11-03T10:42:56.023Z,17.40
2018-11-03T10:45:40.445Z,20.10
2018-11-03T10:48:10.528Z,19.03
2018-11-03T10:50:40.598Z,18.40
2018-11-03T10:53:09.649Z,19.00
2018-11-03T10:55:38.715Z,20.80
2018-11-03T10:58:07.869Z,20.43
2018-11-03T11:00:36.934Z,19.60
2018-11-03T11:05:45.905Z,22.80
2018-11-03T11:11:14.868Z,20.70
2018-11-03T11:13:43.897Z,20.98
2018-11-03T11:16:13.000Z,19.43
2018-11-03T11:18:45.519Z,21.30
2018-11-03T11:26:28.135Z,20.25
2018-11-03T11:28:57.204Z,18.87
2018-11-03T11:31:26.381Z,18.63
2018-11-03T11:33:55.385Z,19.47
2018-11-03T11:39:00.211Z,19.02
2018-11-03T11:41:29.385Z,19.10
2018-11-03T11:44:03.441Z,19.37
2018-11-03T11:46:32.502Z,19.53
2018-11-03T11:49:01.571Z,19.43
2018-11-03T11:51:34.119Z,23.07
2018-11-03T11:54:03.573Z,20.40
2018-11-03T11:56:32.612Z,18.63
2018-11-03T11:59:01.689Z,20.00
2018-11-03T12:11:57.410Z,25.53
2018-11-03T12:14:26.461Z,20.77
2018-11-03T12:16:56.429Z,20.00
2018-11-03T12:19:25.497Z,22.45
2018-11-03T12:21:54.550Z,20.40
2018-11-03T12:24:23.619Z,22.10
2018-11-03T12:26:52.685Z,24.43
2018-11-03T12:31:57.541Z,21.50
2018-11-03T12:34:26.602Z,20.93
2018-11-03T12:36:55.874Z,23.37
2018-11-03T12:39:24.939Z,21.57
2018-11-03T12:41:54.003Z,23.10
2018-11-03T12:44:24.035Z,25.43
2018-11-03T12:46:53.124Z,22.13
2018-11-03T12:49:22.164Z,24.57
2018-11-03T12:51:51.248Z,22.47
2018-11-03T12:59:31.751Z,25.40
2018-11-03T13:02:00.839Z,26.93
2018-11-03T13:07:05.589Z,26.50
2018-11-03T13:09:34.694Z,27.15
2018-11-03T13:12:03.815Z,27.67
2018-11-03T13:17:08.803Z,24.00
2018-11-03T13:19:38.816Z,23.27
2018-11-03T13:22:10.015Z,23.13
2018-11-03T13:24:39.083Z,21.53
2018-11-03T13:27:08.132Z,20.23
2018-11-03T13:34:48.727Z,24.57
2018-11-03T13:37:17.765Z,23.27
2018-11-03T13:39:47.959Z,23.27
2018-11-03T13:42:17.008Z,20.87
2018-11-03T13:44:49.707Z,22.17
2018-11-03T13:47:18.836Z,22.13
2018-11-03T13:49:47.818Z,22.03
2018-11-03T13:52:16.870Z,21.10
2018-11-03T13:54:47.916Z,23.40
2018-11-03T13:57:16.969Z,24.00
2018-11-03T13:59:46.017Z,22.93
2018-11-03T14:02:15.077Z,26.23
2018-11-03T14:04:44.184Z,23.60
2018-11-03T14:07:13.254Z,20.63
2018-11-03T14:09:43.315Z,20.40
2018-11-03T14:12:13.356Z,19.43
2018-11-03T14:14:42.402Z,21.40
2018-11-03T14:17:11.551Z,24.00
2018-11-03T14:19:40.558Z,23.03
2018-11-03T14:22:09.663Z,21.37
2018-11-03T14:24:38.721Z,22.73
2018-11-03T14:27:08.756Z,20.03
2018-11-03T14:29:37.816Z,20.60
2018-11-03T14:32:06.900Z,21.43
2018-11-03T14:34:37.917Z,21.33
2018-11-03T14:37:07.204Z,21.80
2018-11-03T14:39:36.255Z,20.10
2018-11-03T14:42:05.324Z,21.57
2018-11-03T14:44:34.385Z,23.43
2018-11-03T14:47:03.441Z,23.10
2018-11-03T14:49:32.508Z,19.70
2018-11-03T14:52:01.554Z,20.73
2018-11-03T14:57:07.515Z,25.35
2018-11-03T14:59:36.591Z,25.37
2018-11-03T15:02:05.645Z,23.00
2018-11-03T15:04:36.782Z,22.90
2018-11-03T15:07:07.770Z,25.27
2018-11-03T15:12:13.050Z,22.97
2018-11-03T15:14:42.222Z,21.37
2018-11-03T15:17:11.286Z,17.40
2018-11-03T15:19:40.360Z,19.63
2018-11-03T15:22:12.656Z,21.12
2018-11-03T15:24:41.693Z,20.10
2018-11-03T15:27:19.604Z,18.03
2018-11-03T15:29:48.685Z,20.10
2018-11-03T15:32:18.722Z,19.40
2018-11-03T15:34:47.812Z,18.03
2018-11-03T15:37:16.823Z,18.00
2018-11-03T15:39:45.892Z,18.33
2018-11-03T15:42:14.941Z,22.83
2018-11-03T15:44:44.014Z,20.33
2018-11-03T15:47:14.033Z,19.50
2018-11-03T15:49:45.078Z,18.00
2018-11-03T15:52:14.133Z,20.20
2018-11-03T15:54:44.225Z,20.10
2018-11-03T15:57:14.218Z,23.40
2018-11-03T15:59:43.279Z,24.00
2018-11-03T16:02:12.337Z,21.70
2018-11-03T16:04:46.249Z,25.97
2018-11-03T16:09:52.135Z,24.43
2018-11-03T16:12:21.522Z,25.93
2018-11-03T16:14:50.439Z,27.58
2018-11-03T16:17:19.507Z,28.23
2018-11-03T16:19:48.711Z,24.73
2018-11-03T16:22:19.643Z,23.60
2018-11-03T16:24:48.708Z,23.77
2018-11-03T16:29:54.453Z,28.48
2018-11-03T16:32:23.725Z,26.90
2018-11-03T16:34:52.584Z,26.33
2018-11-03T16:37:21.621Z,32.83
2018-11-03T16:39:50.736Z,28.60
2018-11-03T16:42:19.818Z,27.57
2018-11-03T16:44:48.882Z,26.20
2018-11-03T16:47:17.943Z,29.70
2018-11-03T16:49:47.951Z,28.03
2018-11-03T16:52:17.068Z,24.80
2018-11-03T16:54:54.019Z,28.57
2018-11-03T16:57:23.094Z,32.13
2018-11-03T16:59:52.156Z,29.83
2018-11-03T17:02:22.187Z,35.97
2018-11-03T17:04:51.404Z,35.37
2018-11-03T17:07:21.488Z,34.17
2018-11-03T17:09:51.484Z,34.97
2018-11-03T17:12:20.603Z,35.67
2018-11-03T17:14:49.599Z,33.57
2018-11-03T17:17:18.655Z,38.85
2018-11-03T17:19:47.786Z,39.00
2018-11-03T17:22:17.861Z,35.70
2018-11-03T17:24:46.933Z,36.83
2018-11-03T17:29:51.686Z,40.07
2018-11-03T17:32:20.744Z,33.10
2018-11-03T17:34:50.825Z,39.13
2018-11-03T17:39:56.618Z,42.45
2018-11-03T17:42:26.659Z,36.23
2018-11-03T17:44:55.706Z,36.30
2018-11-03T17:47:24.760Z,37.97
2018-11-03T17:49:53.994Z,37.17
2018-11-03T17:57:34.519Z,43.50
2018-11-03T18:00:05.554Z,38.80
2018-11-03T18:02:34.568Z,42.07
2018-11-03T18:05:03.614Z,40.30
2018-11-03T18:07:34.634Z,39.30
2018-11-03T18:10:03.694Z,34.90
2018-11-03T18:12:32.751Z,33.80
2018-11-03T18:15:01.798Z,33.00
2018-11-03T18:17:30.982Z,33.20
2018-11-03T18:22:39.279Z,33.30
2018-11-03T18:25:08.324Z,32.97
2018-11-03T18:27:37.393Z,32.63
2018-11-03T18:30:06.452Z,31.70
2018-11-03T18:32:35.499Z,33.90
2018-11-03T18:35:05.504Z,30.13
2018-11-03T18:37:34.577Z,28.50
2018-11-03T18:40:05.542Z,42.40
2018-11-03T18:42:34.582Z,34.83
2018-11-03T18:45:04.459Z,31.10
2018-11-03T18:47:33.493Z,37.47
2018-11-03T18:50:06.338Z,34.90
2018-11-03T18:52:35.373Z,38.45
2018-11-03T18:55:04.442Z,37.53
2018-11-03T18:57:33.500Z,34.23
2018-11-03T19:00:06.424Z,34.87
2018-11-03T19:02:35.525Z,42.97
2018-11-03T19:05:04.525Z,37.37
2018-11-03T19:07:35.573Z,37.00
2018-11-03T19:10:06.516Z,35.43
2018-11-03T19:12:37.541Z,36.57
2018-11-03T19:15:06.598Z,31.37
2018-11-03T19:17:35.648Z,37.00
2018-11-03T19:20:04.799Z,36.33
2018-11-03T19:22:33.830Z,38.97
2018-11-03T19:25:02.895Z,47.27
2018-11-03T19:32:43.379Z,49.33
2018-11-03T19:40:23.935Z,43.93
2018-11-03T19:42:52.935Z,40.93
2018-11-03T19:45:22.056Z,35.20
2018-11-03T19:47:51.041Z,35.67
2018-11-03T19:50:20.090Z,34.37
2018-11-03T19:52:49.180Z,34.70
2018-11-03T19:55:18.241Z,35.72
2018-11-03T19:57:47.441Z,31.07
2018-11-03T20:00:16.487Z,27.90
2018-11-03T20:02:46.600Z,29.33
2018-11-03T20:07:51.261Z,29.77
2018-11-03T20:10:20.335Z,27.08
2018-11-03T20:12:49.412Z,26.55
2018-11-03T20:15:18.460Z,26.90
2018-11-03T20:17:50.500Z,25.83
2018-11-03T20:20:23.561Z,24.07
2018-11-03T20:22:52.609Z,24.70
2018-11-03T20:25:21.669Z,22.77
2018-11-03T20:27:50.721Z,26.37
2018-11-03T20:30:21.693Z,24.70
2018-11-03T20:32:50.745Z,24.20
2018-11-03T20:35:19.821Z,23.30
2018-11-03T20:40:24.584Z,25.90
2018-11-03T20:42:53.660Z,28.80
2018-11-03T20:45:22.724Z,22.70
2018-11-03T20:47:51.776Z,27.20
2018-11-03T20:52:58.650Z,25.30
2018-11-03T20:55:29.597Z,25.98
2018-11-03T20:57:59.794Z,28.60
2018-11-03T21:00:28.855Z,25.97
2018-11-03T21:02:57.926Z,25.10
2018-11-03T21:05:28.949Z,29.00
2018-11-03T21:07:58.059Z,28.90
2018-11-03T21:10:27.150Z,25.33
2018-11-03T21:12:56.193Z,29.07
2018-11-03T21:15:25.258Z,24.77
2018-11-03T21:17:54.294Z,27.97
2018-11-03T21:20:23.357Z,28.53
2018-11-03T21:22:55.610Z,31.15
2018-11-03T21:25:26.684Z,30.27
2018-11-03T21:27:55.708Z,27.00
2018-11-03T21:30:25.777Z,28.20
2018-11-03T21:32:55.972Z,32.70
2018-11-03T21:35:26.792Z,32.77
2018-11-03T21:37:55.843Z,30.70
2018-11-03T21:40:24.912Z,33.15
2018-11-03T21:42:53.985Z,33.33
2018-11-03T21:45:24.978Z,32.20
2018-11-03T21:47:54.052Z,27.93
2018-11-03T21:52:58.877Z,29.30
2018-11-03T21:55:27.924Z,29.17
2018-11-03T21:57:56.983Z,30.73
2018-11-03T22:00:26.026Z,24.23
2018-11-03T22:05:31.772Z,33.03
2018-11-03T22:08:00.843Z,28.25
2018-11-03T22:10:31.837Z,29.98
2018-11-03T22:13:01.037Z,30.07
2018-11-03T22:15:30.097Z,27.83
2018-11-03T22:17:59.296Z,25.47
2018-11-03T22:20:28.572Z,27.17
2018-11-03T22:22:57.670Z,29.37
2018-11-03T22:25:26.711Z,30.07
2018-11-03T22:27:55.864Z,27.60
2018-11-03T22:30:24.873Z,26.60
2018-11-03T22:32:54.063Z,30.73
2018-11-03T22:35:23.148Z,25.20
2018-11-03T22:37:52.244Z,26.70
2018-11-03T22:40:21.325Z,27.80
2018-11-03T22:42:50.364Z,29.73
2018-11-03T22:45:19.421Z,28.93
2018-11-03T22:50:26.796Z,33.00
2018-11-03T22:55:37.577Z,30.73
2018-11-03T23:00:44.367Z,30.50
2018-11-03T23:03:13.449Z,30.05
2018-11-03T23:05:44.495Z,30.43
2018-11-03T23:08:15.517Z,28.10
2018-11-03T23:10:44.569Z,31.10
2018-11-03T23:13:13.714Z,29.43
2018-11-03T23:15:42.691Z,33.10
2018-11-03T23:20:48.443Z,30.90
2018-11-03T23:23:17.512Z,32.67
2018-11-03T23:25:47.492Z,36.33
2018-11-03T23:28:16.549Z,27.57
2018-11-03T23:33:21.301Z,32.07
2018-11-03T23:35:57.931Z,30.50
2018-11-03T23:38:27.976Z,31.30
2018-11-03T23:40:57.001Z,33.70
2018-11-03T23:43:26.048Z,34.47
2018-11-03T23:45:56.109Z,33.97
2018-11-03T23:48:25.141Z,31.13
2018-11-03T23:53:29.965Z,33.70
2018-11-03T23:55:59.009Z,33.95
2018-11-03T23:58:31.081Z,35.17
